sensor_id;sensor_type;location;lat;lon;timestamp;P1;durP1;ratioP1;P2;durP2;ratioP2
71475;SDS011;59286;59.274;17.974;2023-03-01T00:01:06;3.38;;;0.75;;
71475;SDS011;59286;59.274;17.974;2023-03-01T00:03:33;3.90;;;0.88;;
71475;SDS011;59286;59.274;17.974;2023-03-01T00:05:59;4.78;;;0.90;;
71475;SDS011;59286;59.274;17.974;2023-03-01T00:08:26;5.25;;;1.20;;
71475;SDS011;59286;59.274;17.974;2023-03-01T00:11:02;3.05;;;0.73;;
71475;SDS011;59286;59.274;17.974;2023-03-01T00:13:42;3.58;;;0.90;;
71475;SDS011;59286;59.274;17.974;2023-03-01T00:16:10;5.80;;;0.82;;
71475;SDS011;59286;59.274;17.974;2023-03-01T00:18:39;4.35;;;0.82;;
71475;SDS011;59286;59.274;17.974;2023-03-01T00:21:04;1.95;;;0.68;;
71475;SDS011;59286;59.274;17.974;2023-03-01T00:23:30;4.18;;;0.93;;
71475;SDS011;59286;59.274;17.974;2023-03-01T00:25:56;4.13;;;0.90;;
71475;SDS011;59286;59.274;17.974;2023-03-01T00:28:22;7.80;;;1.20;;
71475;SDS011;59286;59.274;17.974;2023-03-01T00:30:48;3.70;;;0.85;;
71475;SDS011;59286;59.274;17.974;2023-03-01T00:33:15;4.20;;;1.00;;
71475;SDS011;59286;59.274;17.974;2023-03-01T00:35:41;5.68;;;1.17;;
71475;SDS011;59286;59.274;17.974;2023-03-01T00:38:06;4.40;;;0.80;;
71475;SDS011;59286;59.274;17.974;2023-03-01T00:40:33;6.20;;;1.25;;
71475;SDS011;59286;59.274;17.974;2023-03-01T00:43:00;4.93;;;1.10;;
71475;SDS011;59286;59.274;17.974;2023-03-01T00:45:26;4.28;;;0.95;;
71475;SDS011;59286;59.274;17.974;2023-03-01T00:47:52;5.18;;;0.90;;
71475;SDS011;59286;59.274;17.974;2023-03-01T00:50:17;7.15;;;1.05;;
71475;SDS011;59286;59.274;17.974;2023-03-01T00:52:43;4.47;;;0.80;;
71475;SDS011;59286;59.274;17.974;2023-03-01T00:55:09;4.53;;;1.33;;
71475;SDS011;59286;59.274;17.974;2023-03-01T00:57:36;3.65;;;1.10;;
71475;SDS011;59286;59.274;17.974;2023-03-01T01:00:02;3.10;;;0.90;;
71475;SDS011;59286;59.274;17.974;2023-03-01T01:02:32;5.40;;;1.10;;
71475;SDS011;59286;59.274;17.974;2023-03-01T01:04:58;5.22;;;1.10;;
71475;SDS011;59286;59.274;17.974;2023-03-01T01:07:23;5.43;;;0.95;;
71475;SDS011;59286;59.274;17.974;2023-03-01T01:09:49;7.30;;;1.00;;
71475;SDS011;59286;59.274;17.974;2023-03-01T01:12:15;3.65;;;1.05;;
71475;SDS011;59286;59.274;17.974;2023-03-01T01:14:40;5.82;;;1.10;;
71475;SDS011;59286;59.274;17.974;2023-03-01T01:17:06;5.53;;;1.63;;
71475;SDS011;59286;59.274;17.974;2023-03-01T01:19:31;2.60;;;0.90;;
71475;SDS011;59286;59.274;17.974;2023-03-01T01:21:57;6.22;;;1.25;;
71475;SDS011;59286;59.274;17.974;2023-03-01T01:24:22;8.00;;;1.08;;
71475;SDS011;59286;59.274;17.974;2023-03-01T01:26:48;4.60;;;1.15;;
71475;SDS011;59286;59.274;17.974;2023-03-01T01:29:14;5.32;;;1.45;;
71475;SDS011;59286;59.274;17.974;2023-03-01T01:31:40;4.05;;;1.40;;
71475;SDS011;59286;59.274;17.974;2023-03-01T01:34:07;5.65;;;1.35;;
71475;SDS011;59286;59.274;17.974;2023-03-01T01:36:34;6.63;;;1.50;;
71475;SDS011;59286;59.274;17.974;2023-03-01T01:39:00;4.22;;;1.10;;
71475;SDS011;59286;59.274;17.974;2023-03-01T01:41:26;5.90;;;1.20;;
71475;SDS011;59286;59.274;17.974;2023-03-01T01:46:49;5.00;;;1.00;;
71475;SDS011;59286;59.274;17.974;2023-03-01T01:49:25;3.28;;;1.02;;
71475;SDS011;59286;59.274;17.974;2023-03-01T01:52:04;5.88;;;1.20;;
71475;SDS011;59286;59.274;17.974;2023-03-01T01:54:54;7.05;;;1.00;;
71475;SDS011;59286;59.274;17.974;2023-03-01T01:57:27;3.72;;;0.90;;
71475;SDS011;59286;59.274;17.974;2023-03-01T02:00:00;7.85;;;1.30;;
71475;SDS011;59286;59.274;17.974;2023-03-01T02:02:32;4.15;;;1.30;;
71475;SDS011;59286;59.274;17.974;2023-03-01T02:05:03;4.65;;;1.10;;
71475;SDS011;59286;59.274;17.974;2023-03-01T02:07:36;3.38;;;1.00;;
71475;SDS011;59286;59.274;17.974;2023-03-01T02:10:05;4.90;;;1.25;;
71475;SDS011;59286;59.274;17.974;2023-03-01T02:12:31;5.50;;;1.25;;
71475;SDS011;59286;59.274;17.974;2023-03-01T02:14:58;5.15;;;1.27;;
71475;SDS011;59286;59.274;17.974;2023-03-01T02:17:23;3.72;;;1.20;;
71475;SDS011;59286;59.274;17.974;2023-03-01T02:19:52;3.17;;;1.05;;
71475;SDS011;59286;59.274;17.974;2023-03-01T02:22:23;6.93;;;1.42;;
71475;SDS011;59286;59.274;17.974;2023-03-01T02:25:27;5.38;;;1.02;;
71475;SDS011;59286;59.274;17.974;2023-03-01T02:27:58;3.40;;;1.17;;
71475;SDS011;59286;59.274;17.974;2023-03-01T02:30:30;6.80;;;1.10;;
71475;SDS011;59286;59.274;17.974;2023-03-01T02:32:57;3.38;;;0.90;;
71475;SDS011;59286;59.274;17.974;2023-03-01T02:35:27;6.43;;;1.20;;
71475;SDS011;59286;59.274;17.974;2023-03-01T02:37:56;3.92;;;0.80;;
71475;SDS011;59286;59.274;17.974;2023-03-01T02:40:25;4.28;;;0.90;;
71475;SDS011;59286;59.274;17.974;2023-03-01T02:42:55;4.47;;;0.98;;
71475;SDS011;59286;59.274;17.974;2023-03-01T02:45:22;5.30;;;1.23;;
71475;SDS011;59286;59.274;17.974;2023-03-01T02:47:48;2.67;;;0.73;;
71475;SDS011;59286;59.274;17.974;2023-03-01T02:53:01;5.75;;;1.08;;
71475;SDS011;59286;59.274;17.974;2023-03-01T02:55:35;3.78;;;0.90;;
71475;SDS011;59286;59.274;17.974;2023-03-01T02:58:00;2.70;;;0.88;;
71475;SDS011;59286;59.274;17.974;2023-03-01T03:00:36;3.80;;;0.80;;
71475;SDS011;59286;59.274;17.974;2023-03-01T03:03:05;2.58;;;0.82;;
71475;SDS011;59286;59.274;17.974;2023-03-01T03:05:32;3.00;;;0.85;;
71475;SDS011;59286;59.274;17.974;2023-03-01T03:07:58;4.35;;;0.80;;
71475;SDS011;59286;59.274;17.974;2023-03-01T03:10:26;4.05;;;0.95;;
71475;SDS011;59286;59.274;17.974;2023-03-01T03:12:56;3.20;;;1.10;;
71475;SDS011;59286;59.274;17.974;2023-03-01T03:15:27;5.15;;;0.80;;
71475;SDS011;59286;59.274;17.974;2023-03-01T03:17:58;1.83;;;0.80;;
71475;SDS011;59286;59.274;17.974;2023-03-01T03:20:27;2.38;;;0.70;;
71475;SDS011;59286;59.274;17.974;2023-03-01T03:23:04;2.83;;;0.75;;
71475;SDS011;59286;59.274;17.974;2023-03-01T03:25:30;3.35;;;1.10;;
71475;SDS011;59286;59.274;17.974;2023-03-01T03:27:56;4.88;;;0.95;;
71475;SDS011;59286;59.274;17.974;2023-03-01T03:30:26;4.88;;;0.93;;
71475;SDS011;59286;59.274;17.974;2023-03-01T03:32:53;4.10;;;0.98;;
71475;SDS011;59286;59.274;17.974;2023-03-01T03:37:49;4.88;;;1.13;;
71475;SDS011;59286;59.274;17.974;2023-03-01T03:40:29;3.30;;;0.93;;
71475;SDS011;59286;59.274;17.974;2023-03-01T03:43:00;5.03;;;1.00;;
71475;SDS011;59286;59.274;17.974;2023-03-01T03:45:28;7.35;;;1.30;;
71475;SDS011;59286;59.274;17.974;2023-03-01T03:47:54;6.35;;;1.30;;
71475;SDS011;59286;59.274;17.974;2023-03-01T03:50:20;4.10;;;1.13;;
71475;SDS011;59286;59.274;17.974;2023-03-01T03:52:45;3.10;;;1.10;;
71475;SDS011;59286;59.274;17.974;2023-03-01T03:55:11;3.95;;;0.80;;
71475;SDS011;59286;59.274;17.974;2023-03-01T03:57:37;1.30;;;0.80;;
71475;SDS011;59286;59.274;17.974;2023-03-01T04:00:11;3.00;;;0.93;;
71475;SDS011;59286;59.274;17.974;2023-03-01T04:02:44;4.60;;;1.30;;
71475;SDS011;59286;59.274;17.974;2023-03-01T04:05:15;4.78;;;1.00;;
71475;SDS011;59286;59.274;17.974;2023-03-01T04:07:42;2.10;;;0.90;;
71475;SDS011;59286;59.274;17.974;2023-03-01T04:10:09;2.22;;;0.90;;
71475;SDS011;59286;59.274;17.974;2023-03-01T04:12:40;3.33;;;0.90;;
71475;SDS011;59286;59.274;17.974;2023-03-01T04:15:08;2.85;;;0.90;;
71475;SDS011;59286;59.274;17.974;2023-03-01T04:17:45;3.88;;;0.80;;
71475;SDS011;59286;59.274;17.974;2023-03-01T04:20:15;2.58;;;0.90;;
71475;SDS011;59286;59.274;17.974;2023-03-01T04:22:42;6.05;;;1.35;;
71475;SDS011;59286;59.274;17.974;2023-03-01T04:25:08;1.70;;;1.00;;
71475;SDS011;59286;59.274;17.974;2023-03-01T04:27:35;2.75;;;0.90;;
71475;SDS011;59286;59.274;17.974;2023-03-01T04:30:02;4.90;;;0.80;;
71475;SDS011;59286;59.274;17.974;2023-03-01T04:32:28;3.13;;;1.10;;
71475;SDS011;59286;59.274;17.974;2023-03-01T04:34:54;2.72;;;0.88;;
71475;SDS011;59286;59.274;17.974;2023-03-01T04:37:19;2.38;;;1.02;;
71475;SDS011;59286;59.274;17.974;2023-03-01T04:39:45;2.88;;;0.80;;
71475;SDS011;59286;59.274;17.974;2023-03-01T04:42:12;2.90;;;0.80;;
71475;SDS011;59286;59.274;17.974;2023-03-01T04:44:37;1.60;;;0.70;;
71475;SDS011;59286;59.274;17.974;2023-03-01T04:47:03;2.60;;;0.93;;
71475;SDS011;59286;59.274;17.974;2023-03-01T04:49:28;1.85;;;0.70;;
71475;SDS011;59286;59.274;17.974;2023-03-01T04:51:54;3.78;;;1.00;;
71475;SDS011;59286;59.274;17.974;2023-03-01T04:54:23;1.63;;;0.70;;
71475;SDS011;59286;59.274;17.974;2023-03-01T04:56:48;1.33;;;0.80;;
71475;SDS011;59286;59.274;17.974;2023-03-01T04:59:14;2.60;;;0.98;;
71475;SDS011;59286;59.274;17.974;2023-03-01T05:01:39;3.47;;;0.90;;
71475;SDS011;59286;59.274;17.974;2023-03-01T05:04:08;4.78;;;1.15;;
71475;SDS011;59286;59.274;17.974;2023-03-01T05:06:38;1.55;;;0.68;;
71475;SDS011;59286;59.274;17.974;2023-03-01T05:09:04;2.65;;;1.67;;
71475;SDS011;59286;59.274;17.974;2023-03-01T05:11:30;2.30;;;0.80;;
71475;SDS011;59286;59.274;17.974;2023-03-01T05:13:58;2.97;;;1.00;;
71475;SDS011;59286;59.274;17.974;2023-03-01T05:16:24;2.42;;;0.90;;
71475;SDS011;59286;59.274;17.974;2023-03-01T05:18:50;1.80;;;0.82;;
71475;SDS011;59286;59.274;17.974;2023-03-01T05:21:16;1.73;;;0.70;;
71475;SDS011;59286;59.274;17.974;2023-03-01T05:23:42;4.53;;;0.80;;
71475;SDS011;59286;59.274;17.974;2023-03-01T05:26:07;2.00;;;0.80;;
71475;SDS011;59286;59.274;17.974;2023-03-01T05:28:33;3.55;;;0.70;;
71475;SDS011;59286;59.274;17.974;2023-03-01T05:30:59;2.10;;;0.95;;
71475;SDS011;59286;59.274;17.974;2023-03-01T05:33:27;2.72;;;0.90;;
71475;SDS011;59286;59.274;17.974;2023-03-01T05:35:53;1.83;;;0.63;;
71475;SDS011;59286;59.274;17.974;2023-03-01T05:38:19;1.63;;;0.88;;
71475;SDS011;59286;59.274;17.974;2023-03-01T05:40:46;3.50;;;1.30;;
71475;SDS011;59286;59.274;17.974;2023-03-01T05:43:14;4.53;;;1.60;;
71475;SDS011;59286;59.274;17.974;2023-03-01T05:45:40;4.15;;;2.10;;
71475;SDS011;59286;59.274;17.974;2023-03-01T05:48:07;6.38;;;1.90;;
71475;SDS011;59286;59.274;17.974;2023-03-01T05:50:36;2.97;;;1.50;;
71475;SDS011;59286;59.274;17.974;2023-03-01T05:53:05;3.58;;;1.75;;
71475;SDS011;59286;59.274;17.974;2023-03-01T05:55:33;4.63;;;1.95;;
71475;SDS011;59286;59.274;17.974;2023-03-01T05:58:00;5.38;;;2.15;;
71475;SDS011;59286;59.274;17.974;2023-03-01T06:00:27;8.15;;;3.22;;
71475;SDS011;59286;59.274;17.974;2023-03-01T06:02:56;10.23;;;3.90;;
71475;SDS011;59286;59.274;17.974;2023-03-01T06:05:23;8.27;;;4.07;;
71475;SDS011;59286;59.274;17.974;2023-03-01T06:07:49;4.43;;;2.50;;
71475;SDS011;59286;59.274;17.974;2023-03-01T06:10:16;4.95;;;1.90;;
71475;SDS011;59286;59.274;17.974;2023-03-01T06:12:42;4.35;;;1.83;;
71475;SDS011;59286;59.274;17.974;2023-03-01T06:15:09;3.00;;;1.10;;
71475;SDS011;59286;59.274;17.974;2023-03-01T06:17:36;3.13;;;1.02;;
71475;SDS011;59286;59.274;17.974;2023-03-01T06:20:04;3.35;;;1.00;;
71475;SDS011;59286;59.274;17.974;2023-03-01T06:22:30;1.95;;;0.88;;
71475;SDS011;59286;59.274;17.974;2023-03-01T06:24:56;3.60;;;0.85;;
71475;SDS011;59286;59.274;17.974;2023-03-01T06:27:21;2.15;;;0.80;;
71475;SDS011;59286;59.274;17.974;2023-03-01T06:29:47;1.90;;;0.80;;
71475;SDS011;59286;59.274;17.974;2023-03-01T06:32:12;1.40;;;0.75;;
71475;SDS011;59286;59.274;17.974;2023-03-01T06:34:38;6.65;;;0.90;;
71475;SDS011;59286;59.274;17.974;2023-03-01T06:37:04;2.97;;;0.98;;
71475;SDS011;59286;59.274;17.974;2023-03-01T06:39:30;1.85;;;0.73;;
71475;SDS011;59286;59.274;17.974;2023-03-01T06:41:56;1.95;;;0.70;;
71475;SDS011;59286;59.274;17.974;2023-03-01T06:44:21;2.22;;;0.90;;
71475;SDS011;59286;59.274;17.974;2023-03-01T06:46:47;2.47;;;0.88;;
71475;SDS011;59286;59.274;17.974;2023-03-01T06:49:12;2.58;;;0.70;;
71475;SDS011;59286;59.274;17.974;2023-03-01T06:51:38;5.35;;;0.80;;
71475;SDS011;59286;59.274;17.974;2023-03-01T06:54:04;2.30;;;0.60;;
71475;SDS011;59286;59.274;17.974;2023-03-01T06:56:30;3.03;;;0.73;;
71475;SDS011;59286;59.274;17.974;2023-03-01T06:58:56;1.55;;;0.75;;
71475;SDS011;59286;59.274;17.974;2023-03-01T07:01:21;1.52;;;0.60;;
71475;SDS011;59286;59.274;17.974;2023-03-01T07:03:47;3.15;;;0.75;;
71475;SDS011;59286;59.274;17.974;2023-03-01T07:06:12;2.22;;;0.82;;
71475;SDS011;59286;59.274;17.974;2023-03-01T07:08:37;6.18;;;0.77;;
71475;SDS011;59286;59.274;17.974;2023-03-01T07:11:03;1.83;;;0.70;;
71475;SDS011;59286;59.274;17.974;2023-03-01T07:13:29;3.38;;;0.80;;
71475;SDS011;59286;59.274;17.974;2023-03-01T07:15:55;2.88;;;0.93;;
71475;SDS011;59286;59.274;17.974;2023-03-01T07:18:20;2.63;;;0.50;;
71475;SDS011;59286;59.274;17.974;2023-03-01T07:20:46;1.60;;;0.70;;
71475;SDS011;59286;59.274;17.974;2023-03-01T07:23:11;1.42;;;0.52;;
71475;SDS011;59286;59.274;17.974;2023-03-01T07:25:37;3.08;;;0.65;;
71475;SDS011;59286;59.274;17.974;2023-03-01T07:28:02;1.17;;;0.40;;
71475;SDS011;59286;59.274;17.974;2023-03-01T07:30:28;1.67;;;0.65;;
71475;SDS011;59286;59.274;17.974;2023-03-01T07:32:56;1.55;;;0.60;;
71475;SDS011;59286;59.274;17.974;2023-03-01T07:35:23;0.82;;;0.32;;
71475;SDS011;59286;59.274;17.974;2023-03-01T07:37:50;2.17;;;0.57;;
71475;SDS011;59286;59.274;17.974;2023-03-01T07:40:16;1.27;;;0.60;;
71475;SDS011;59286;59.274;17.974;2023-03-01T07:42:41;3.63;;;0.70;;
71475;SDS011;59286;59.274;17.974;2023-03-01T07:45:07;2.33;;;0.63;;
71475;SDS011;59286;59.274;17.974;2023-03-01T07:47:33;2.38;;;0.82;;
71475;SDS011;59286;59.274;17.974;2023-03-01T07:49:59;1.80;;;0.80;;
71475;SDS011;59286;59.274;17.974;2023-03-01T07:52:26;2.40;;;0.63;;
71475;SDS011;59286;59.274;17.974;2023-03-01T07:54:51;1.50;;;0.50;;
71475;SDS011;59286;59.274;17.974;2023-03-01T07:57:16;1.48;;;0.60;;
71475;SDS011;59286;59.274;17.974;2023-03-01T07:59:42;2.70;;;0.70;;
71475;SDS011;59286;59.274;17.974;2023-03-01T08:02:08;3.22;;;0.75;;
71475;SDS011;59286;59.274;17.974;2023-03-01T08:04:34;3.60;;;0.68;;
71475;SDS011;59286;59.274;17.974;2023-03-01T08:07:00;4.07;;;0.75;;
71475;SDS011;59286;59.274;17.974;2023-03-01T08:09:25;2.17;;;0.63;;
71475;SDS011;59286;59.274;17.974;2023-03-01T08:11:51;1.30;;;0.45;;
71475;SDS011;59286;59.274;17.974;2023-03-01T08:14:16;1.40;;;0.70;;
71475;SDS011;59286;59.274;17.974;2023-03-01T08:16:42;2.15;;;0.73;;
71475;SDS011;59286;59.274;17.974;2023-03-01T08:19:08;3.00;;;0.52;;
71475;SDS011;59286;59.274;17.974;2023-03-01T08:21:36;2.45;;;0.60;;
71475;SDS011;59286;59.274;17.974;2023-03-01T08:24:05;2.30;;;0.57;;
71475;SDS011;59286;59.274;17.974;2023-03-01T08:26:35;1.30;;;0.50;;
71475;SDS011;59286;59.274;17.974;2023-03-01T08:29:01;2.80;;;0.60;;
71475;SDS011;59286;59.274;17.974;2023-03-01T08:31:30;1.48;;;0.68;;
71475;SDS011;59286;59.274;17.974;2023-03-01T08:34:01;2.90;;;0.50;;
71475;SDS011;59286;59.274;17.974;2023-03-01T08:36:29;4.25;;;0.65;;
71475;SDS011;59286;59.274;17.974;2023-03-01T08:38:56;2.50;;;0.60;;
71475;SDS011;59286;59.274;17.974;2023-03-01T08:41:22;5.93;;;0.88;;
71475;SDS011;59286;59.274;17.974;2023-03-01T08:43:48;2.55;;;0.68;;
71475;SDS011;59286;59.274;17.974;2023-03-01T08:46:13;2.25;;;0.70;;
71475;SDS011;59286;59.274;17.974;2023-03-01T08:48:39;4.25;;;0.70;;
71475;SDS011;59286;59.274;17.974;2023-03-01T08:51:08;1.65;;;0.50;;
71475;SDS011;59286;59.274;17.974;2023-03-01T08:53:38;2.00;;;0.47;;
71475;SDS011;59286;59.274;17.974;2023-03-01T08:56:04;1.88;;;0.55;;
71475;SDS011;59286;59.274;17.974;2023-03-01T08:58:30;1.73;;;0.50;;
71475;SDS011;59286;59.274;17.974;2023-03-01T09:00:56;3.47;;;0.52;;
71475;SDS011;59286;59.274;17.974;2023-03-01T09:03:21;0.63;;;0.38;;
71475;SDS011;59286;59.274;17.974;2023-03-01T09:05:47;1.70;;;0.50;;
71475;SDS011;59286;59.274;17.974;2023-03-01T09:08:15;1.63;;;0.70;;
71475;SDS011;59286;59.274;17.974;2023-03-01T09:10:41;1.90;;;0.55;;
71475;SDS011;59286;59.274;17.974;2023-03-01T09:13:06;1.42;;;0.50;;
71475;SDS011;59286;59.274;17.974;2023-03-01T09:15:32;2.03;;;0.47;;
71475;SDS011;59286;59.274;17.974;2023-03-01T09:17:58;3.88;;;0.60;;
71475;SDS011;59286;59.274;17.974;2023-03-01T09:20:27;1.55;;;0.47;;
71475;SDS011;59286;59.274;17.974;2023-03-01T09:23:00;2.35;;;0.38;;
71475;SDS011;59286;59.274;17.974;2023-03-01T09:25:25;1.13;;;0.43;;
71475;SDS011;59286;59.274;17.974;2023-03-01T09:27:51;1.63;;;0.40;;
71475;SDS011;59286;59.274;17.974;2023-03-01T09:30:29;1.77;;;0.38;;
71475;SDS011;59286;59.274;17.974;2023-03-01T09:32:55;2.17;;;0.55;;
71475;SDS011;59286;59.274;17.974;2023-03-01T09:35:21;2.22;;;0.40;;
71475;SDS011;59286;59.274;17.974;2023-03-01T09:37:47;10.07;;;0.60;;
71475;SDS011;59286;59.274;17.974;2023-03-01T09:40:16;2.55;;;0.60;;
71475;SDS011;59286;59.274;17.974;2023-03-01T09:42:59;2.88;;;0.43;;
71475;SDS011;59286;59.274;17.974;2023-03-01T09:45:47;2.03;;;0.60;;
71475;SDS011;59286;59.274;17.974;2023-03-01T09:48:16;1.73;;;0.60;;
71475;SDS011;59286;59.274;17.974;2023-03-01T09:50:47;0.73;;;0.40;;
71475;SDS011;59286;59.274;17.974;2023-03-01T09:53:17;2.60;;;0.40;;
71475;SDS011;59286;59.274;17.974;2023-03-01T09:55:50;1.75;;;0.52;;
71475;SDS011;59286;59.274;17.974;2023-03-01T10:01:19;1.05;;;0.30;;
71475;SDS011;59286;59.274;17.974;2023-03-01T10:03:55;1.15;;;0.30;;
71475;SDS011;59286;59.274;17.974;2023-03-01T10:06:44;1.48;;;0.47;;
71475;SDS011;59286;59.274;17.974;2023-03-01T10:09:16;1.50;;;0.35;;
71475;SDS011;59286;59.274;17.974;2023-03-01T10:11:45;1.52;;;0.40;;
71475;SDS011;59286;59.274;17.974;2023-03-01T10:17:25;3.45;;;0.50;;
71475;SDS011;59286;59.274;17.974;2023-03-01T10:19:51;2.13;;;0.30;;
71475;SDS011;59286;59.274;17.974;2023-03-01T10:22:21;1.70;;;0.40;;
71475;SDS011;59286;59.274;17.974;2023-03-01T10:24:54;4.57;;;0.50;;
71475;SDS011;59286;59.274;17.974;2023-03-01T10:27:24;1.05;;;0.45;;
71475;SDS011;59286;59.274;17.974;2023-03-01T10:30:00;0.53;;;0.30;;
71475;SDS011;59286;59.274;17.974;2023-03-01T10:32:48;0.85;;;0.30;;
71475;SDS011;59286;59.274;17.974;2023-03-01T10:35:17;1.67;;;0.55;;
71475;SDS011;59286;59.274;17.974;2023-03-01T10:37:57;1.42;;;0.30;;
71475;SDS011;59286;59.274;17.974;2023-03-01T10:46:23;1.25;;;0.50;;
71475;SDS011;59286;59.274;17.974;2023-03-01T10:51:43;1.65;;;0.50;;
71475;SDS011;59286;59.274;17.974;2023-03-01T10:54:19;2.15;;;0.40;;
71475;SDS011;59286;59.274;17.974;2023-03-01T10:56:48;2.25;;;0.50;;
71475;SDS011;59286;59.274;17.974;2023-03-01T10:59:37;0.98;;;0.50;;
71475;SDS011;59286;59.274;17.974;2023-03-01T11:02:17;2.72;;;0.80;;
71475;SDS011;59286;59.274;17.974;2023-03-01T11:07:27;3.95;;;0.75;;
71475;SDS011;59286;59.274;17.974;2023-03-01T11:09:54;1.67;;;0.43;;
71475;SDS011;59286;59.274;17.974;2023-03-01T11:12:20;1.35;;;0.38;;
71475;SDS011;59286;59.274;17.974;2023-03-01T11:14:55;2.25;;;0.50;;
71475;SDS011;59286;59.274;17.974;2023-03-01T11:20:06;1.40;;;0.28;;
71475;SDS011;59286;59.274;17.974;2023-03-01T11:22:45;1.10;;;0.30;;
71475;SDS011;59286;59.274;17.974;2023-03-01T11:25:13;1.33;;;0.40;;
71475;SDS011;59286;59.274;17.974;2023-03-01T11:27:41;1.02;;;0.40;;
71475;SDS011;59286;59.274;17.974;2023-03-01T11:32:57;1.33;;;0.40;;
71475;SDS011;59286;59.274;17.974;2023-03-01T11:35:41;1.05;;;0.30;;
71475;SDS011;59286;59.274;17.974;2023-03-01T12:08:40;1.90;;;0.65;;
71475;SDS011;59286;59.274;17.974;2023-03-01T12:19:52;0.88;;;0.50;;
71475;SDS011;59286;59.274;17.974;2023-03-01T12:22:38;1.90;;;0.40;;
71475;SDS011;59286;59.274;17.974;2023-03-01T12:25:16;1.13;;;0.30;;
71475;SDS011;59286;59.274;17.974;2023-03-01T12:30:26;0.70;;;0.30;;
71475;SDS011;59286;59.274;17.974;2023-03-01T12:38:32;1.23;;;0.40;;
71475;SDS011;59286;59.274;17.974;2023-03-01T12:44:12;3.80;;;0.22;;
71475;SDS011;59286;59.274;17.974;2023-03-01T12:50:04;0.85;;;0.30;;
71475;SDS011;59286;59.274;17.974;2023-03-01T12:52:43;2.30;;;0.40;;
71475;SDS011;59286;59.274;17.974;2023-03-01T12:55:31;0.93;;;0.32;;
71475;SDS011;59286;59.274;17.974;2023-03-01T13:09:04;1.92;;;0.40;;
71475;SDS011;59286;59.274;17.974;2023-03-01T13:11:41;0.43;;;0.20;;
71475;SDS011;59286;59.274;17.974;2023-03-01T13:16:50;1.85;;;0.35;;
71475;SDS011;59286;59.274;17.974;2023-03-01T13:19:21;1.58;;;0.60;;
71475;SDS011;59286;59.274;17.974;2023-03-01T13:21:48;2.10;;;0.40;;
71475;SDS011;59286;59.274;17.974;2023-03-01T13:29:32;0.70;;;0.47;;
71475;SDS011;59286;59.274;17.974;2023-03-01T13:32:17;1.05;;;0.20;;
71475;SDS011;59286;59.274;17.974;2023-03-01T13:37:43;2.17;;;0.43;;
71475;SDS011;59286;59.274;17.974;2023-03-01T13:42:43;1.75;;;0.50;;
71475;SDS011;59286;59.274;17.974;2023-03-01T13:45:25;0.80;;;0.15;;
71475;SDS011;59286;59.274;17.974;2023-03-01T13:48:02;2.17;;;0.40;;
71475;SDS011;59286;59.274;17.974;2023-03-01T13:50:36;2.00;;;0.50;;
71475;SDS011;59286;59.274;17.974;2023-03-01T13:53:10;0.68;;;0.30;;
71475;SDS011;59286;59.274;17.974;2023-03-01T13:55:42;3.40;;;0.30;;
71475;SDS011;59286;59.274;17.974;2023-03-01T13:58:19;1.15;;;0.40;;
71475;SDS011;59286;59.274;17.974;2023-03-01T14:00:54;1.50;;;0.50;;
71475;SDS011;59286;59.274;17.974;2023-03-01T14:03:21;1.65;;;0.20;;
71475;SDS011;59286;59.274;17.974;2023-03-01T14:06:00;1.42;;;0.20;;
71475;SDS011;59286;59.274;17.974;2023-03-01T14:08:27;1.23;;;0.20;;
71475;SDS011;59286;59.274;17.974;2023-03-01T14:10:57;1.45;;;0.32;;
71475;SDS011;59286;59.274;17.974;2023-03-01T14:18:39;2.22;;;0.40;;
71475;SDS011;59286;59.274;17.974;2023-03-01T14:21:30;1.95;;;0.50;;
71475;SDS011;59286;59.274;17.974;2023-03-01T14:23:56;1.65;;;0.57;;
71475;SDS011;59286;59.274;17.974;2023-03-01T14:26:25;3.83;;;1.42;;
71475;SDS011;59286;59.274;17.974;2023-03-01T14:28:51;1.00;;;0.65;;
71475;SDS011;59286;59.274;17.974;2023-03-01T14:31:31;1.40;;;0.30;;
71475;SDS011;59286;59.274;17.974;2023-03-01T14:33:59;1.77;;;0.30;;
71475;SDS011;59286;59.274;17.974;2023-03-01T14:36:29;2.42;;;0.40;;
71475;SDS011;59286;59.274;17.974;2023-03-01T14:38:56;3.03;;;0.30;;
71475;SDS011;59286;59.274;17.974;2023-03-01T14:41:30;1.48;;;0.30;;
71475;SDS011;59286;59.274;17.974;2023-03-01T14:44:12;0.55;;;0.45;;
71475;SDS011;59286;59.274;17.974;2023-03-01T14:46:51;0.75;;;0.40;;
71475;SDS011;59286;59.274;17.974;2023-03-01T14:49:19;0.65;;;0.30;;
71475;SDS011;59286;59.274;17.974;2023-03-01T14:54:27;3.40;;;0.60;;
71475;SDS011;59286;59.274;17.974;2023-03-01T14:57:00;1.50;;;0.43;;
71475;SDS011;59286;59.274;17.974;2023-03-01T14:59:28;5.85;;;0.60;;
71475;SDS011;59286;59.274;17.974;2023-03-01T15:01:55;0.77;;;0.50;;
71475;SDS011;59286;59.274;17.974;2023-03-01T15:04:23;2.83;;;0.50;;
71475;SDS011;59286;59.274;17.974;2023-03-01T15:06:55;2.38;;;0.80;;
71475;SDS011;59286;59.274;17.974;2023-03-01T15:09:29;1.42;;;0.57;;
71475;SDS011;59286;59.274;17.974;2023-03-01T15:11:59;4.60;;;0.40;;
71475;SDS011;59286;59.274;17.974;2023-03-01T15:14:28;4.15;;;0.47;;
71475;SDS011;59286;59.274;17.974;2023-03-01T15:17:04;5.75;;;0.40;;
71475;SDS011;59286;59.274;17.974;2023-03-01T15:19:29;5.80;;;0.47;;
71475;SDS011;59286;59.274;17.974;2023-03-01T15:21:55;0.60;;;0.40;;
71475;SDS011;59286;59.274;17.974;2023-03-01T15:24:24;1.60;;;0.35;;
71475;SDS011;59286;59.274;17.974;2023-03-01T15:29:21;3.55;;;1.92;;
71475;SDS011;59286;59.274;17.974;2023-03-01T15:34:48;1.42;;;0.40;;
71475;SDS011;59286;59.274;17.974;2023-03-01T15:40:27;1.02;;;0.40;;
71475;SDS011;59286;59.274;17.974;2023-03-01T15:43:03;2.92;;;0.88;;
71475;SDS011;59286;59.274;17.974;2023-03-01T15:45:31;2.20;;;0.60;;
71475;SDS011;59286;59.274;17.974;2023-03-01T15:48:18;0.73;;;0.47;;
71475;SDS011;59286;59.274;17.974;2023-03-01T15:50:56;4.00;;;0.88;;
71475;SDS011;59286;59.274;17.974;2023-03-01T15:53:50;3.80;;;0.57;;
71475;SDS011;59286;59.274;17.974;2023-03-01T15:56:23;5.95;;;0.50;;
71475;SDS011;59286;59.274;17.974;2023-03-01T15:59:04;6.00;;;0.60;;
71475;SDS011;59286;59.274;17.974;2023-03-01T16:01:32;1.95;;;0.50;;
71475;SDS011;59286;59.274;17.974;2023-03-01T16:03:59;5.68;;;0.90;;
71475;SDS011;59286;59.274;17.974;2023-03-01T16:06:25;2.25;;;0.73;;
71475;SDS011;59286;59.274;17.974;2023-03-01T16:08:50;2.00;;;0.50;;
71475;SDS011;59286;59.274;17.974;2023-03-01T16:11:17;4.90;;;0.63;;
71475;SDS011;59286;59.274;17.974;2023-03-01T16:13:44;0.50;;;0.43;;
71475;SDS011;59286;59.274;17.974;2023-03-01T16:16:13;1.27;;;0.50;;
71475;SDS011;59286;59.274;17.974;2023-03-01T16:18:44;0.75;;;0.38;;
71475;SDS011;59286;59.274;17.974;2023-03-01T16:21:21;2.05;;;0.50;;
71475;SDS011;59286;59.274;17.974;2023-03-01T16:23:50;1.45;;;0.50;;
71475;SDS011;59286;59.274;17.974;2023-03-01T16:26:16;5.25;;;0.50;;
71475;SDS011;59286;59.274;17.974;2023-03-01T16:28:43;1.00;;;0.60;;
71475;SDS011;59286;59.274;17.974;2023-03-01T16:31:21;2.58;;;0.80;;
71475;SDS011;59286;59.274;17.974;2023-03-01T16:33:52;4.57;;;0.80;;
71475;SDS011;59286;59.274;17.974;2023-03-01T16:36:21;3.70;;;0.50;;
71475;SDS011;59286;59.274;17.974;2023-03-01T16:38:51;3.85;;;0.63;;
71475;SDS011;59286;59.274;17.974;2023-03-01T16:41:18;2.50;;;0.40;;
71475;SDS011;59286;59.274;17.974;2023-03-01T16:43:45;3.20;;;0.40;;
71475;SDS011;59286;59.274;17.974;2023-03-01T16:46:18;2.80;;;0.50;;
71475;SDS011;59286;59.274;17.974;2023-03-01T16:48:46;1.42;;;0.40;;
71475;SDS011;59286;59.274;17.974;2023-03-01T16:51:12;2.88;;;0.40;;